Summit, AZ

9:44 AM MST on December 06, 2016 (GMT -0700)
MesoWest | | Change Station

Elev 2587 ft 32.09 °N, 110.96 °W | Updated 1 hour ago

Clear
Clear
43.0 °F
Feels Like 43.0 °F
N
0.0
Wind Variable Wind from North
Gusts 0.0 mph

Today
High -- | Low -- °F
--% Chance of Precip.
Yesterday
High -- | Low -- °F
Precip. -- in
Pressure 29.94 in
Visibility 10.0 miles
Clouds Clear
Dew Point Not available.
Humidity Not available.
Rainfall in
Snow Depth Not available.
7:11 AM 5:19 PM
Waxing Crescent, 43% visible
METAR KTUS 061553Z 15006KT 10SM CLR 11/01 A3000 RMK AO2 SLP139 T01110006
Pressure 29.94 in
Visibility 10.0 miles
Clouds Clear
Dew Point Not available.
Humidity Not available.
Rainfall in
Snow Depth Not available.
7:11 AM 5:19 PM
Waxing Crescent, 43% visible
METAR KTUS 061553Z 15006KT 10SM CLR 11/01 A3000 RMK AO2 SLP139 T01110006

10-Day Weather Forecast

Almanac

Astronomy

Dec. 06, 2016 Rise Set
Actual Time
Civil Twilight
Nautical Twilight
Astronomical Twilight
Moon
Length of Visible Light
Length of Day
Tomorrow will be .
, % of the Moon is Illuminated

Today's Extremes

State Highs State Lows

Community

WunderPhotos

Upload Photos

1,955,983 photos uploaded!

WunderBlog® & News

Nearby

Air Quality

  Air Quality AQ Index Pollutant
Not available.

Snow Depth

Station Depth Elevation

Earthquake Activity

City Distance Mag. Time & Date
Minimum magnitude displayed is 2.5.

Coastal Water Temperatures

Place Temperature

Stations

Nearby Weather Stations

Station Location Temp. Windchill Dew Point Humidity Wind Precip. Elev Updated Type
                   

Watches & Warnings

There are currently no watches in effect.